M I D A S
Marine Information and Data Acquisition System
Tripno 1810 of the Zeeleeuw from 2009-11-19 08:28:57 to 2009-11-19 13:29:36
Back to CruiseResearch ActivitiesStationsMapUnderway DataData graphs

EquipmentUnitsComment
TimeDGPSUTC
LatitudeDGPSDM.mWGS84
LongitudeDGPSDM.mWGS84
TemperatureSBE03/SBE38deg celciusITS90
ConductivitySBE21S/mITS90
SalinitySBE21 Practical Salinity Units
ChlorophylAChelsea fluorimeterg/lCalibrated in Aceton
Missing or incorrect values are displayed as -999
Sea surface data collected by the RV Zeeleeuw from 2009-11-19 08:31:40 to 2009-11-19 13:47:33
Time Latitude Longitude Temperature Conductivity Salinity ChlorophylA
2009-11-19 08:32:49 51°13.681 2°55.881 17.9773 0.038915 0.219173 -0.547855
2009-11-19 08:33:49 51°13.694 2°55.792 17.9762 0.039018 0.219792 -0.58268
2009-11-19 08:34:48 51°13.7 2°55.758 17.9766 0.039018 0.219828 -0.547855
2009-11-19 08:35:48 51°13.693 2°55.742 17.9837 0.039224 0.221046 -0.58268
2009-11-19 08:36:47 51°13.735 2°55.711 17.9736 0.038503 0.216905 -0.547855
2009-11-19 08:37:45 51°13.829 2°55.633 17.9805 0.038503 0.216929 -0.547855
2009-11-19 08:38:45 51°13.95 2°55.542 17.9806 0.038606 0.217544 -0.547855
2009-11-19 08:39:45 51°14.078 2°55.448 17.982 0.038503 0.21698 -0.58268
2009-11-19 08:40:45 51°14.199 2°55.338 17.9847 0.038709 0.218202 -0.547855
2009-11-19 08:41:45 51°14.299 2°55.176 17.9749 0.0384 0.216441 -0.547855
2009-11-19 08:42:45 51°14.407 2°54.983 17.9585 0.037989 0.214085 -0.547855
2009-11-19 08:43:45 51°14.554 2°54.823 17.9361 0.037268 0.209983 -0.547855
2009-11-19 08:44:45 51°14.715 2°54.696 17.6499 0.037371 0.210581 -0.547855
2009-11-19 08:45:45 51°14.879 2°54.574 17.8197 0.037577 0.2118 -0.58268
2009-11-19 08:46:45 51°15.042 2°54.452 17.5397 0.037165 0.2095 -0.58268
2009-11-19 08:47:45 51°15.204 2°54.329 17.7737 0.036548 0.205977 -0.58268
2009-11-19 08:48:45 51°15.362 2°54.203 17.5099 0.036445 0.20544 -0.58268
2009-11-19 08:49:45 51°15.519 2°54.076 17.6914 0.035622 0.200799 -0.58268
2009-11-19 08:50:45 51°15.676 2°53.944 17.4677 0.03696 0.208532 -0.58268
2009-11-19 08:51:45 51°15.834 2°53.813 17.4398 0.035931 0.202693 -0.58268
2009-11-19 08:52:45 51°15.997 2°53.685 17.5978 0.036033 0.203368 -0.58268
2009-11-19 08:53:45 51°16.155 2°53.555 17.3787 0.035725 0.201707 -0.58268
2009-11-19 08:54:45 51°16.314 2°53.426 17.6304 0.035828 0.202449 -0.58268
2009-11-19 08:55:45 51°16.467 2°53.284 17.5559 0.035622 0.201329 -0.58268
2009-11-19 08:56:45 51°16.625 2°53.145 17.6279 0.035725 0.202005 -0.58268
2009-11-19 08:57:45 51°16.778 2°53.005 17.6609 0.035828 0.202674 -0.58268
2009-11-19 08:58:45 51°16.924 2°52.862 17.6169 0.035931 0.203352 -0.58268
2009-11-19 08:59:45 51°17.069 2°52.715 17.5923 0.03521 0.199342 -0.58268
2009-11-19 09:00:45 51°17.214 2°52.569 17.7321 0.035519 0.201259 -0.58268
2009-11-19 09:01:45 51°17.357 2°52.424 17.3743 0.035622 0.201996 -0.58268
2009-11-19 09:02:45 51°17.499 2°52.278 17.6626 0.034696 0.196752 -0.58268
2009-11-19 09:03:45 51°17.642 2°52.13 17.445 0.03521 0.199941 -0.58268
2009-11-19 09:04:45 51°17.787 2°51.982 17.3478 0.035725 0.203282 -0.58268
2009-11-19 09:05:45 51°17.928 2°51.838 17.4874 0.034902 0.198559 -0.58268
2009-11-19 09:06:45 51°18.07 2°51.689 17.518 0.034799 0.19795 -0.58268
2009-11-19 09:07:45 51°18.217 2°51.541 17.4257 0.035519 0.202165 -0.58268
2009-11-19 09:08:45 51°18.363 2°51.395 17.4504 0.03521 0.200511 -0.58268
2009-11-19 09:09:45 51°18.506 2°51.243 17.4274 0.035519 0.202295 -0.617504
2009-11-19 09:10:45 51°18.65 2°51.091 17.456 0.034593 0.196915 -0.58268
2009-11-19 09:11:45 51°18.798 2°50.938 17.4706 0.03449 0.196443 -0.58268
2009-11-19 09:12:45 51°18.942 2°50.787 17.4417 0.034387 0.195934 -0.58268
2009-11-19 09:13:45 51°19.083 2°50.636 17.4244 0.034799 0.198288 -0.617504
2009-11-19 09:14:45 51°19.228 2°50.488 17.443 0.035107 0.20011 -0.58268
2009-11-19 09:15:45 51°19.374 2°50.34 17.394 0.03449 0.196689 -0.58268
2009-11-19 09:16:45 51°19.524 2°50.19 17.5096 0.035622 0.203202 -0.58268
2009-11-19 09:17:45 51°19.673 2°50.038 17.4484 0.03521 0.20081 -0.58268
2009-11-19 09:18:45 51°19.821 2°49.891 17.5924 0.034902 0.199086 -0.58268
2009-11-19 09:19:45 51°19.967 2°49.739 17.4732 0.03521 0.200925 -0.58268
2009-11-19 09:20:45 51°20.115 2°49.589 17.4705 0.035107 0.200354 -0.617504
2009-11-19 09:21:45 51°20.26 2°49.431 17.5021 0.035004 0.19972 -0.58268
2009-11-19 09:22:45 51°20.404 2°49.278 17.5897 0.035931 0.20518 -0.617504
2009-11-19 09:23:45 51°20.553 2°49.127 17.5489 0.03449 0.196736 -0.58268
2009-11-19 09:24:45 51°20.707 2°48.993 17.5406 0.035931 0.205203 -0.617504
2009-11-19 09:25:45 51°20.87 2°48.9 17.5496 0.036548 0.208848 -0.617504
2009-11-19 09:26:45 51°21.035 2°48.811 17.5335 0.03521 0.201037 -0.617504
2009-11-19 09:27:45 51°21.196 2°48.722 17.5958 0.038503 0.220291 -0.58268
2009-11-19 09:28:45 51°21.362 2°48.634 17.5592 0.034799 0.198662 -0.58268
2009-11-19 09:29:45 51°21.531 2°48.543 17.6109 0.035725 0.204064 -0.58268
2009-11-19 09:30:45 51°21.699 2°48.455 17.6049 0.036136 0.206449 -0.617504
2009-11-19 09:31:45 51°21.863 2°48.354 17.6028 0.03521 0.2011 -0.58268
2009-11-19 09:32:45 51°22.019 2°48.213 17.732 0.034181 0.195094 -0.58268
2009-11-19 09:33:45 51°22.175 2°48.071 17.6302 0.03521 0.201137 -0.617504
2009-11-19 09:34:45 51°22.324 2°47.924 17.6285 0.035622 0.203496 -0.617504
2009-11-19 09:35:45 51°22.471 2°47.768 17.6693 0.036445 0.20835 -0.617504
2009-11-19 09:36:45 51°22.617 2°47.615 17.6357 0.035622 0.203582 -0.58268
2009-11-19 09:37:45 51°22.762 2°47.458 17.7181 0.034696 0.19817 -0.58268
2009-11-19 09:38:45 51°22.91 2°47.303 17.7019 0.035622 0.203601 -0.58268
2009-11-19 09:39:45 51°23.057 2°47.148 17.709 0.034181 0.195223 -0.58268
2009-11-19 09:40:45 51°23.202 2°46.995 17.6987 0.036239 0.207232 -0.617504
2009-11-19 09:41:45 51°23.348 2°46.839 17.7387 0.03521 0.201234 -0.58268
2009-11-19 09:42:45 51°23.495 2°46.688 17.7308 0.03696 0.21146 -0.617504
2009-11-19 09:43:45 51°23.641 2°46.538 17.7549 0.036136 0.206656 -0.617504
2009-11-19 09:44:45 51°23.788 2°46.381 17.7241 0.03521 0.201278 -0.617504
2009-11-19 09:45:45 51°23.934 2°46.237 17.7827 0.035416 0.20249 -0.617504
2009-11-19 09:46:45 51°24.095 2°46.167 17.7923 0.03768 0.21573 -0.617504
2009-11-19 09:47:45 51°24.257 2°46.176 17.7972 0.04015 0.23017 -0.617504
2009-11-19 09:48:45 51°24.393 2°46.3 17.8943 0.038503 0.220472 -0.617504
2009-11-19 09:49:45 51°24.502 2°46.482 17.9441 0.043855 0.251815 -0.58268
2009-11-19 09:50:45 51°24.595 2°46.685 17.8419 0.038503 0.220418 -0.617504
2009-11-19 09:51:45 51°24.701 2°46.871 17.9431 0.038709 0.221625 -0.617504
2009-11-19 09:52:45 51°24.831 2°47.021 17.9585 0.042208 0.242147 -0.617504
2009-11-19 09:53:45 51°24.966 2°47.172 17.913 0.037474 0.214456 -0.617504
2009-11-19 09:54:45 51°25.097 2°47.324 17.9783 0.039327 0.22541 -0.58268
2009-11-19 09:55:45 51°25.226 2°47.482 17.9885 0.042208 0.242229 -0.617504
2009-11-19 09:56:45 51°25.343 2°47.653 17.9218 0.038606 0.221135 -0.617504
2009-11-19 09:57:45 51°25.431 2°47.873 18.0277 0.041796 0.23979 -0.58268
2009-11-19 09:58:45 51°25.512 2°48.097 18.0683 0.041179 0.2362 -0.617504
2009-11-19 09:59:45 51°25.602 2°48.309 18.0901 0.041076 0.235517 -0.617504
2009-11-19 10:00:45 51°25.697 2°48.52 18.0974 0.042105 0.24167 -0.617504
2009-11-19 10:01:45 51°25.788 2°48.733 18.0294 0.041591 0.23861 -0.617504
2009-11-19 10:02:45 51°25.876 2°48.947 18.1586 0.04334 0.248833 -0.58268
2009-11-19 10:03:45 51°25.963 2°49.17 18.1851 0.043134 0.247637 -0.617504
2009-11-19 10:04:45 51°26.045 2°49.397 18.1028 0.039944 0.228939 -0.617504
2009-11-19 10:05:45 51°26.131 2°49.624 18.0696 0.039327 0.225334 -0.617504
2009-11-19 10:06:45 51°26.22 2°49.855 18.1451 0.041591 0.238561 -0.617504
2009-11-19 10:07:45 51°26.305 2°50.081 18.1427 0.041899 0.240385 -0.617504
2009-11-19 10:08:45 51°26.393 2°50.307 18.1824 0.042723 0.245196 -0.617504
2009-11-19 10:09:45 51°26.483 2°50.527 18.2037 0.040047 0.229473 -0.617504
2009-11-19 10:10:45 51°26.568 2°50.754 18.2256 0.040664 0.233079 -0.617504
2009-11-19 10:11:45 51°26.654 2°50.979 18.1939 0.039224 0.224665 -0.617504
2009-11-19 10:12:45 51°26.738 2°51.207 18.2761 0.040561 0.232502 -0.617504
2009-11-19 10:13:45 51°26.824 2°51.433 18.2645 0.038812 0.222259 -0.617504
2009-11-19 10:14:45 51°26.911 2°51.659 18.2945 0.042723 0.245163 -0.617504
2009-11-19 10:15:45 51°26.997 2°51.886 18.2536 0.041488 0.237944 -0.617504
2009-11-19 10:16:45 51°27.083 2°52.122 18.2857 0.040561 0.232507 -0.617504
2009-11-19 10:17:45 51°27.166 2°52.346 18.3566 0.042517 0.243941 -0.617504
2009-11-19 10:18:45 51°27.254 2°52.565 18.3168 0.042414 0.243351 -0.617504
2009-11-19 10:19:45 51°27.339 2°52.785 18.3297 0.042311 0.242706 -0.617504
2009-11-19 10:20:45 51°27.421 2°53.01 18.3571 0.041179 0.236045 -0.617504
2009-11-19 10:21:45 51°27.502 2°53.243 18.3824 0.040047 0.229558 -0.617504
2009-11-19 10:22:45 51°27.585 2°53.467 18.3933 0.042208 0.242134 -0.617504
2009-11-19 10:23:45 51°27.667 2°53.694 18.3626 0.042517 0.243932 -0.617504
2009-11-19 10:24:45 51°27.746 2°53.927 18.3674 0.039018 0.22342 -0.652328
2009-11-19 10:25:45 51°27.826 2°54.152 18.4308 0.037989 0.217394 -0.617504
2009-11-19 10:26:45 51°27.911 2°54.379 18.4098 0.039327 0.225174 -0.617504
2009-11-19 10:27:45 51°27.991 2°54.61 18.4691 0.041385 0.237162 -0.617504
2009-11-19 10:28:45 51°28.067 2°54.844 18.4857 0.043752 0.251031 -0.617504
2009-11-19 10:29:45 51°28.143 2°55.084 18.3823 0.037783 0.216033 -0.617504
2009-11-19 10:30:45 51°28.217 2°55.316 18.471 0.042517 0.243712 -0.617504
2009-11-19 10:31:45 51°28.295 2°55.552 18.5157 0.043546 0.249691 -0.617504
2009-11-19 10:32:45 51°28.372 2°55.784 18.5788 0.04406 0.252688 -0.617504
2009-11-19 10:33:45 51°28.45 2°56.02 18.5201 0.040253 0.230311 -0.617504
2009-11-19 10:34:45 51°28.526 2°56.258 18.5439 0.039327 0.224914 -0.617504
2009-11-19 10:35:45 51°28.603 2°56.49 18.4429 0.038812 0.221895 -0.617504
2009-11-19 10:36:45 51°28.682 2°56.729 18.5323 0.039018 0.223046 -0.617504
2009-11-19 10:37:45 51°28.761 2°56.967 18.4781 0.040356 0.230857 -0.617504
2009-11-19 10:38:45 51°28.839 2°57.208 18.6179 0.043855 0.251277 -0.617504
2009-11-19 10:39:45 51°28.916 2°57.445 18.5673 0.044678 0.256124 -0.617504
2009-11-19 10:40:45 51°28.993 2°57.678 18.5232 0.039429 0.225402 -0.617504
2009-11-19 10:41:45 51°29.084 2°57.903 18.5797 0.039944 0.228375 -0.617504
2009-11-19 10:42:45 51°29.174 2°58.13 18.5336 0.039121 0.223555 -0.617504
2009-11-19 10:43:45 51°29.262 2°58.36 18.5286 0.036857 0.210364 -0.652328
2009-11-19 10:44:45 51°29.351 2°58.584 18.6003 0.038915 0.222537 -0.617504
2009-11-19 10:45:45 51°29.441 2°58.807 18.6528 0.042723 0.244745 -0.617504
2009-11-19 10:46:45 51°29.53 2°59.035 18.693 0.042723 0.244713 -0.617504
2009-11-19 10:47:45 51°29.617 2°59.267 18.6447 0.039841 0.227817 -0.617504
2009-11-19 10:48:45 51°29.706 2°59.494 18.7204 0.042002 0.240466 -0.617504
2009-11-19 10:49:45 51°29.793 2°59.723 18.7384 0.041591 0.238105 -0.617504
2009-11-19 10:50:45 51°29.882 2°59.949 18.7672 0.043443 0.248876 -0.617504
2009-11-19 10:51:45 51°29.967 3°0.18 18.7003 0.03768 0.215253 -0.617504
2009-11-19 10:52:45 51°30.053 3°0.403 18.7598 0.041899 0.239958 -0.617504
2009-11-19 10:53:45 51°30.141 3°0.634 18.7078 0.042105 0.241105 -0.617504
2009-11-19 10:54:45 51°30.231 3°0.865 18.7492 0.041076 0.235033 -0.617504
2009-11-19 10:55:45 51°30.319 3°1.092 18.6865 0.041076 0.235094 -0.617504
2009-11-19 10:56:45 51°30.408 3°1.323 18.7869 0.041179 0.235617 -0.617504
2009-11-19 10:57:45 51°30.494 3°1.551 18.7774 0.040459 0.231329 -0.617504
2009-11-19 10:58:45 51°30.58 3°1.781 18.8553 0.04262 0.243936 -0.617504
2009-11-19 10:59:45 51°30.667 3°2.011 18.8245 0.043855 0.251234 -0.617504
2009-11-19 11:00:45 51°30.752 3°2.241 18.83 0.040767 0.23308 -0.617504
2009-11-19 11:01:45 51°30.84 3°2.47 18.763 0.040459 0.231329 -0.617504
2009-11-19 11:02:45 51°30.93 3°2.698 18.879 0.041076 0.234849 -0.617504
2009-11-19 11:03:45 51°31.019 3°2.929 18.8542 0.039224 0.224034 -0.617504
2009-11-19 11:04:45 51°31.11 3°3.157 18.958 0.045089 0.258314 -0.617504
2009-11-19 11:05:45 51°31.196 3°3.388 18.8895 0.039121 0.223384 -0.617504
2009-11-19 11:06:45 51°31.286 3°3.618 18.9453 0.042414 0.242695 -0.617504
2009-11-19 11:07:45 51°31.371 3°3.851 18.8946 0.037063 0.211479 -0.617504
2009-11-19 11:08:45 51°31.458 3°4.083 18.9001 0.041179 0.235402 -0.617504
2009-11-19 11:09:45 51°31.549 3°4.315 19.0101 0.043855 0.251037 -0.617504
2009-11-19 11:10:45 51°31.66 3°4.499 19.1221 0.040973 0.234173 -0.617504
2009-11-19 11:11:45 51°31.826 3°4.529 18.9799 0.037474 0.213769 -0.617504
2009-11-19 11:12:45 51°31.994 3°4.472 18.9715 0.0384 0.219197 -0.617504
2009-11-19 11:13:45 51°32.164 3°4.406 18.9325 0.037783 0.215604 -0.617504
2009-11-19 11:14:45 51°32.331 3°4.326 18.9757 0.037166 0.211951 -0.617504
2009-11-19 11:15:45 51°32.492 3°4.219 18.9467 0.035725 0.203608 -0.617504
2009-11-19 11:16:45 51°32.631 3°4.058 18.9933 0.03521 0.200596 -0.617504
2009-11-19 11:17:45 51°32.766 3°3.883 19.0006 0.03696 0.210783 -0.617504
2009-11-19 11:18:45 51°32.901 3°3.709 18.9593 0.035622 0.203011 -0.617504
2009-11-19 11:19:45 51°33.03 3°3.534 18.9807 0.038812 0.221573 -0.617504
2009-11-19 11:20:45 51°33.133 3°3.337 19.1259 0.035725 0.203544 -0.58268
2009-11-19 11:21:46 51°33.139 3°3.091 19.284 0.035519 0.202348 -0.58268
2009-11-19 11:22:46 51°33.052 3°2.881 19.1229 0.035416 0.201762 -0.617504
2009-11-19 11:23:46 51°32.973 3°2.669 19.1055 0.035416 0.20177 -0.58268
2009-11-19 11:24:46 51°32.9 3°2.441 19.0894 0.035313 0.20117 -0.58268
2009-11-19 11:25:46 51°32.828 3°2.214 19.0797 0.034593 0.196962 -0.58268
2009-11-19 11:26:46 51°32.753 3°1.982 19.0984 0.035107 0.19997 -0.58268
2009-11-19 11:27:45 51°32.678 3°1.749 19.1246 0.034799 0.198113 -0.58268
2009-11-19 11:28:45 51°32.605 3°1.52 19.1024 0.03521 0.20057 -0.58268
2009-11-19 11:29:45 51°32.497 3°1.335 19.12 0.035004 0.199305 -0.58268
2009-11-19 11:30:45 51°32.355 3°1.195 19.1584 0.036548 0.208223 -0.58268
2009-11-19 11:31:45 51°32.208 3°1.064 19.1666 0.037371 0.21306 -0.58268
2009-11-19 11:32:45 51°32.049 3°0.953 19.1758 0.037474 0.213567 -0.58268
2009-11-19 11:33:44 51°31.89 3°0.854 19.1879 0.037783 0.215364 -0.58268
2009-11-19 11:34:45 51°31.73 3°0.755 19.209 0.038915 0.221975 -0.58268
2009-11-19 11:35:46 51°31.573 3°0.662 19.2055 0.039429 0.224937 -0.58268
2009-11-19 11:36:45 51°31.418 3°0.575 19.2147 0.039738 0.226718 -0.58268
2009-11-19 11:37:44 51°31.266 3°0.49 19.2401 0.038606 0.22013 -0.58268
2009-11-19 11:38:44 51°31.109 3°0.399 19.2375 0.037371 0.21293 -0.58268
2009-11-19 11:39:45 51°30.95 3°0.308 19.2682 0.0384 0.218929 -0.58268
2009-11-19 11:40:44 51°30.799 3°0.223 19.2829 0.039738 0.226709 -0.58268
2009-11-19 11:41:44 51°30.644 3°0.138 19.2936 0.038812 0.22129 -0.58268
2009-11-19 11:42:44 51°30.491 3°0.051 19.2923 0.036548 0.208162 -0.58268
2009-11-19 11:43:45 51°30.333 2°59.959 19.3062 0.039841 0.227284 -0.58268
2009-11-19 11:44:45 51°30.18 2°59.882 19.3332 0.040459 0.230954 -0.58268
2009-11-19 11:45:44 51°30.028 2°59.793 19.3528 0.039944 0.227904 -0.58268
2009-11-19 11:46:44 51°29.87 2°59.706 19.3624 0.037577 0.214066 -0.547855
2009-11-19 11:47:46 51°29.708 2°59.617 19.3705 0.039327 0.224284 -0.547855
2009-11-19 11:48:44 51°29.558 2°59.531 19.3908 0.039018 0.222524 -0.58268
2009-11-19 11:49:44 51°29.398 2°59.44 19.3873 0.040253 0.229652 -0.58268
2009-11-19 11:50:45 51°29.245 2°59.356 19.407 0.039841 0.227288 -0.58268
2009-11-19 11:51:45 51°29.093 2°59.268 19.4149 0.037577 0.214197 -0.547855
2009-11-19 11:52:45 51°28.941 2°59.183 19.4267 0.04087 0.233277 -0.58268
2009-11-19 11:53:44 51°28.79 2°59.095 19.4416 0.038195 0.21766 -0.58268
2009-11-19 11:54:44 51°28.636 2°59.005 19.459 0.038503 0.219409 -0.58268
2009-11-19 11:55:44 51°28.479 2°58.919 19.4701 0.038503 0.219438 -0.58268
2009-11-19 11:56:44 51°28.324 2°58.826 19.4933 0.039635 0.225993 -0.58268
2009-11-19 11:57:44 51°28.169 2°58.74 19.5025 0.042723 0.244019 -0.58268
2009-11-19 11:58:44 51°28.014 2°58.656 19.4973 0.04015 0.229014 -0.547855
2009-11-19 11:59:44 51°27.86 2°58.576 19.5117 0.040459 0.230838 -0.58268
2009-11-19 12:00:44 51°27.705 2°58.493 19.5386 0.038709 0.220597 -0.58268
2009-11-19 12:01:45 51°27.547 2°58.412 19.5382 0.039841 0.227199 -0.58268
2009-11-19 12:02:44 51°27.402 2°58.343 19.5565 0.040459 0.230812 -0.58268
2009-11-19 12:03:44 51°27.246 2°58.263 19.5519 0.039327 0.224192 -0.58268
2009-11-19 12:04:44 51°27.091 2°58.184 19.5725 0.039429 0.224816 -0.58268
2009-11-19 12:05:44 51°26.934 2°58.108 19.589 0.037371 0.212789 -0.58268
2009-11-19 12:06:44 51°26.783 2°58.034 19.5857 0.0384 0.21884 -0.547855
2009-11-19 12:07:45 51°26.631 2°57.965 19.6088 0.039327 0.224196 -0.58268
2009-11-19 12:08:44 51°26.484 2°57.897 19.6316 0.039224 0.223593 -0.547855
2009-11-19 12:09:44 51°26.334 2°57.829 19.642 0.038709 0.220606 -0.547855
2009-11-19 12:10:45 51°26.184 2°57.764 19.6599 0.038606 0.220024 -0.58268
2009-11-19 12:11:44 51°26.039 2°57.696 19.658 0.038092 0.217018 -0.58268
2009-11-19 12:12:44 51°25.89 2°57.628 19.659 0.038503 0.219409 -0.547855
2009-11-19 12:13:45 51°25.744 2°57.564 19.6842 0.039429 0.224766 -0.58268
2009-11-19 12:14:47 51°25.601 2°57.505 19.6971 0.04087 0.233207 -0.58268
2009-11-19 12:15:45 51°25.46 2°57.441 19.7003 0.037783 0.215249 -0.58268
2009-11-19 12:16:45 51°25.316 2°57.376 19.7104 0.043649 0.249438 -0.58268
2009-11-19 12:17:46 51°25.177 2°57.318 19.7076 0.039327 0.224184 -0.547855
2009-11-19 12:18:44 51°25.041 2°57.261 19.7217 0.039018 0.222363 -0.58268
2009-11-19 12:19:45 51°24.896 2°57.2 19.746 0.037886 0.215771 -0.58268
2009-11-19 12:20:44 51°24.751 2°57.134 19.7528 0.0384 0.218779 -0.547855
2009-11-19 12:21:44 51°24.605 2°57.072 19.7808 0.038915 0.221749 -0.58268
2009-11-19 12:22:44 51°24.459 2°57.012 19.7832 0.039018 0.22233 -0.58268
2009-11-19 12:23:44 51°24.313 2°56.953 19.7812 0.038606 0.219946 -0.547855
2009-11-19 12:24:44 51°24.166 2°56.889 19.7949 0.037577 0.214094 -0.547855
2009-11-19 12:25:44 51°24.019 2°56.824 19.8124 0.038709 0.220516 -0.58268
2009-11-19 12:26:44 51°23.876 2°56.76 19.8165 0.040047 0.228325 -0.58268
2009-11-19 12:27:44 51°23.735 2°56.697 19.8188 0.038606 0.21995 -0.547855
2009-11-19 12:28:44 51°23.61 2°56.647 19.8283 0.039224 0.22354 -0.547855
2009-11-19 12:29:44 51°23.569 2°56.655 19.8495 0.037783 0.215102 -0.58268
2009-11-19 12:30:44 51°23.542 2°56.676 19.8576 0.03768 0.214481 -0.547855
2009-11-19 12:31:44 51°23.433 2°56.643 19.871 0.038915 0.221658 -0.58268
2009-11-19 12:32:44 51°23.29 2°56.58 19.8651 0.037268 0.212067 -0.58268
2009-11-19 12:33:44 51°23.144 2°56.519 19.8824 0.037783 0.215062 -0.547855
2009-11-19 12:34:44 51°22.995 2°56.454 19.8868 0.036857 0.209697 -0.58268
2009-11-19 12:35:44 51°22.85 2°56.393 19.886 0.036857 0.209786 -0.547855
2009-11-19 12:36:44 51°22.705 2°56.333 19.9046 0.03768 0.214457 -0.58268
2009-11-19 12:37:44 51°22.56 2°56.273 19.9494 0.043649 0.249294 -0.547855
2009-11-19 12:38:44 51°22.417 2°56.209 19.9174 0.037886 0.215735 -0.58268
2009-11-19 12:39:44 51°22.276 2°56.148 19.9284 0.038195 0.217527 -0.58268
2009-11-19 12:40:44 51°22.134 2°56.09 19.9387 0.037371 0.212734 -0.547855
2009-11-19 12:41:44 51°21.994 2°56.029 19.9539 0.037371 0.212687 -0.547855
2009-11-19 12:42:44 51°21.879 2°55.91 19.9605 0.037063 0.210936 -0.547855
2009-11-19 12:43:44 51°21.77 2°55.763 19.9527 0.036034 0.204926 -0.547855
2009-11-19 12:44:44 51°21.656 2°55.632 19.9629 0.037783 0.215126 -0.547855
2009-11-19 12:45:44 51°21.536 2°55.507 19.9699 0.036445 0.207416 -0.547855
2009-11-19 12:46:44 51°21.415 2°55.389 19.9804 0.036136 0.205559 -0.547855
2009-11-19 12:47:44 51°21.292 2°55.273 19.9962 0.038812 0.221073 -0.547855
2009-11-19 12:48:44 51°21.173 2°55.159 20.0084 0.036239 0.206144 -0.547855
2009-11-19 12:49:44 51°21.051 2°55.045 19.9964 0.036548 0.207908 -0.547855
2009-11-19 12:50:44 51°20.932 2°54.931 20.0085 0.036034 0.204915 -0.547855
2009-11-19 12:51:44 51°20.81 2°54.811 20.013 0.036857 0.209712 -0.547855
2009-11-19 12:52:44 51°20.688 2°54.694 20.0183 0.036857 0.209731 -0.547855
2009-11-19 12:53:44 51°20.571 2°54.581 20.0251 0.035725 0.203125 -0.547855
2009-11-19 12:54:44 51°20.451 2°54.465 20.0446 0.036239 0.206094 -0.547855
2009-11-19 12:55:44 51°20.331 2°54.34 20.0542 0.035725 0.203114 -0.547855
2009-11-19 12:56:44 51°20.211 2°54.221 20.0741 0.036651 0.208435 -0.547855
2009-11-19 12:57:44 51°20.088 2°54.102 20.0579 0.036857 0.209685 -0.513031
2009-11-19 12:58:44 51°19.966 2°53.982 20.0627 0.037268 0.21207 -0.513031
2009-11-19 12:59:44 51°19.844 2°53.862 20.0844 0.035416 0.201303 -0.547855
2009-11-19 13:00:44 51°19.724 2°53.742 20.0807 0.035931 0.204255 -0.547855
2009-11-19 13:01:44 51°19.604 2°53.621 20.0985 0.036136 0.205476 -0.547855
2009-11-19 13:02:44 51°19.483 2°53.501 20.0952 0.036239 0.206075 -0.547855
2009-11-19 13:03:44 51°19.363 2°53.382 20.1008 0.038709 0.220381 -0.547855
2009-11-19 13:04:44 51°19.242 2°53.259 20.1155 0.035313 0.200686 -0.513031
2009-11-19 13:05:44 51°19.122 2°53.134 20.1219 0.035828 0.203653 -0.513031
2009-11-19 13:06:44 51°19.002 2°53.011 20.1292 0.036342 0.206644 -0.547855
2009-11-19 13:07:44 51°18.879 2°52.894 20.1408 0.040664 0.231719 -0.513031
2009-11-19 13:08:44 51°18.746 2°52.796 20.1261 0.036754 0.209081 -0.513031
2009-11-19 13:09:44 51°18.608 2°52.711 20.1746 0.0384 0.218609 -0.513031
2009-11-19 13:10:44 51°18.472 2°52.624 20.1456 0.037989 0.216244 -0.513031
2009-11-19 13:11:44 51°18.337 2°52.537 20.1512 0.036754 0.209074 -0.513031
2009-11-19 13:12:44 51°18.192 2°52.472 20.1561 0.036342 0.206755 -0.513031
2009-11-19 13:13:44 51°18.045 2°52.437 20.1719 0.038092 0.216857 -0.513031
2009-11-19 13:14:44 51°17.892 2°52.411 20.177 0.038709 0.220418 -0.513031
2009-11-19 13:15:44 51°17.739 2°52.394 20.1921 0.042723 0.243778 -0.513031
2009-11-19 13:16:44 51°17.583 2°52.431 20.2002 0.039327 0.223984 -0.547855
2009-11-19 13:17:44 51°17.425 2°52.482 20.2057 0.0384 0.218629 -0.513031
2009-11-19 13:18:44 51°17.267 2°52.533 20.2286 0.038915 0.221589 -0.513031
2009-11-19 13:19:44 51°17.108 2°52.584 20.2315 0.040561 0.231154 -0.513031
2009-11-19 13:20:44 51°16.949 2°52.629 20.2314 0.039841 0.226909 -0.513031
2009-11-19 13:21:44 51°16.789 2°52.673 20.2602 0.041385 0.235901 -0.513031
2009-11-19 13:22:44 51°16.629 2°52.731 20.256 0.039738 0.226331 -0.513031
2009-11-19 13:23:44 51°16.468 2°52.805 20.2645 0.039327 0.223943 -0.547855
2009-11-19 13:24:45 51°16.307 2°52.891 20.3076 0.042825 0.244274 -0.513031
2009-11-19 13:25:44 51°16.153 2°52.989 20.2908 0.041282 0.235244 -0.513031
2009-11-19 13:26:44 51°15.998 2°53.088 20.2687 0.039018 0.222084 -0.513031
2009-11-19 13:27:44 51°15.841 2°53.185 20.3119 0.039738 0.226277 -0.513031
2009-11-19 13:28:44 51°15.683 2°53.284 20.3007 0.039635 0.225654 -0.513031
2009-11-19 13:29:44 51°15.527 2°53.398 20.3503 0.041076 0.234076 -0.513031
2009-11-19 13:30:44 51°15.377 2°53.526 20.3651 0.042825 0.244196 -0.513031
2009-11-19 13:31:44 51°15.231 2°53.675 20.3395 0.040356 0.229905 -0.513031
2009-11-19 13:32:44 51°15.086 2°53.824 20.3667 0.041385 0.235883 -0.513031
2009-11-19 13:33:45 51°14.937 2°53.972 20.394 0.043649 0.24901 -0.513031
2009-11-19 13:34:44 51°14.811 2°54.156 20.3628 0.039635 0.225658 -0.513031
2009-11-19 13:35:44 51°14.703 2°54.391 20.3941 0.042723 0.243637 -0.513031
2009-11-19 13:36:44 51°14.586 2°54.619 20.3857 0.041385 0.23583 -0.513031
2009-11-19 13:37:44 51°14.467 2°54.843 20.4227 0.043134 0.245961 -0.513031
2009-11-19 13:38:44 51°14.352 2°55.08 20.4647 0.043752 0.249514 -0.513031
2009-11-19 13:39:44 51°14.238 2°55.284 20.4467 0.042414 0.241634 -0.513031
2009-11-19 13:40:44 51°14.119 2°55.419 20.4887 0.043134 0.245778 -0.513031
2009-11-19 13:41:44 51°14 2°55.507 20.491 0.04334 0.246927 -0.513031
2009-11-19 13:42:44 51°13.905 2°55.575 20.5018 0.043752 0.249272 -0.513031
2009-11-19 13:43:44 51°13.82 2°55.642 20.5255 0.043752 0.24923 -0.513031
2009-11-19 13:44:47 51°13.748 2°55.734 20.5409 0.043855 0.249793 -0.513031
2009-11-19 13:45:48 51°13.698 2°55.837 20.5586 0.043957 0.250342 -0.513031
2009-11-19 13:46:48 51°13.669 2°55.928 20.5763 0.044163 0.2515 -0.513031